Latest Coastal Weather Observations for Mornington Island Airport

IDQ60701

Issued at 11:13 am EST Sunday 14 April 2024 (issued every 10 minutes, with the page automatically refreshed every 10 minutes)

About coastal observations | Map of coastal stations | Coastal observations for QLD | Marine services | Other Formats
Station Details ID: 029182 Name: MORNINGTON ISLAND AIRPORT Lat: -16.66 Lon: 139.17 Height: 9.52 m
Data from the previous 72 hours. | See also: Recent months at Mornington Island Airport
Date/Time
EST
Wind Sea
Height
m
Swell Vis
km
Cloud Weather Temp
°C
Press
MSL
hPa
Rain since
9am
mm
Dir  Spd
kts
Gust
kts
Height
m
Period
s
Dir
14/11:00am SE 10 15 - - - - 10 Clear - 30.5 1015.0 0.0
14/10:30am ESE 10 14 - - - - 10 - - 30.2 1015.2 0.0
14/10:00am SE 10 15 - - - - 10 - - 29.8 1015.3 0.0
14/09:30am SE 10 15 - - - - 10 - - 29.2 1015.0 0.0
14/09:00am ESE 10 15 - - - - 10 - - 28.4 1014.9 0.0
14/08:30am SE 8 11 - - - - 10 - - 27.8 1014.6 0.0
14/08:00am SE 5 6 - - - - 10 - - 27.0 1014.3 0.0
14/07:30am SSE 4 5 - - - - 10 - - 25.4 1014.1 0.0
14/07:00am SSE 5 6 - - - - 10 - - 24.0 1013.8 0.0
14/06:30am SSE 5 6 - - - - 10 - - 23.4 1013.6 0.0
14/06:00am CALM 0 3 - - - - 10 - - 23.0 1013.6 0.0
14/05:30am S 3 4 - - - - 10 - - 23.2 1013.5 0.0
14/05:00am S 3 5 - - - - 10 - - 23.3 1013.4 0.0
14/04:30am S 3 5 - - - - 10 Partly cloudy - 23.4 1013.5 0.0
14/04:00am CALM 0 0 - - - - 10 - - 23.5 1013.5 0.0
14/03:30am S 3 5 - - - - 10 - - 23.6 1013.5 0.0
14/03:00am CALM 0 3 - - - - 10 Mostly clear - 23.7 1013.5 0.0
14/02:30am S 3 5 - - - - 10 Partly cloudy - 23.8 1013.6 0.0
14/02:00am SSW 3 5 - - - - 10 Partly cloudy - 24.3 1013.9 0.0
14/01:30am CALM 0 0 - - - - 10 Partly cloudy - 24.0 1014.2 0.0
14/01:00am SE 3 4 - - - - 10 - - 23.8 1014.5 0.0
14/12:30am SE 3 4 - - - - 10 - - 24.2 1014.7 0.0
14/12:00am SE 4 5 - - - - 10 - - 24.5 1014.8 0.0
 
Date/Time
EST
Wind Sea
Height
m
Swell Vis
km
Cloud Weather Temp
°C
Press
MSL
hPa
Rain since
9am
mm
Dir  Spd
kts
Gust
kts
Height
m
Period
s
Dir
13/11:30pm SE 3 4 - - - - 10 - - 24.5 1014.9 0.0
13/11:00pm SE 3 3 - - - - 10 - - 24.9 1015.0 0.0
13/10:30pm SE 3 4 - - - - 10 Partly cloudy - 25.7 1015.2 0.0
13/10:00pm SE 3 5 - - - - 10 Partly cloudy - 26.3 1015.2 0.0
13/09:30pm SE 4 6 - - - - 10 Cloudy - 26.6 1015.2 0.0
13/09:00pm SE 5 6 - - - - 10 Mostly cloudy - 26.7 1014.9 0.0
13/08:30pm SE 5 6 - - - - 10 Partly cloudy - 27.2 1014.7 0.0
13/08:00pm SE 4 6 - - - - 10 Cloudy - 27.3 1014.2 0.0
13/07:30pm SE 6 8 - - - - 10 Cloudy - 27.5 1013.8 0.0
13/07:00pm SE 6 9 - - - - 10 Cloudy - 27.6 1013.5 0.0
13/06:30pm SE 4 7 - - - - 10 Cloudy - 27.7 1013.4 0.0
13/06:00pm SSE 6 9 - - - - 10 Partly cloudy - 27.9 1013.1 0.0
13/05:30pm SE 6 10 - - - - 10 - - 28.3 1013.0 0.0
13/05:00pm SE 7 9 - - - - 10 - - 28.6 1012.9 0.0
13/04:30pm SSE 8 12 - - - - 10 - - 28.8 1012.5 0.0
13/04:00pm SE 7 11 - - - - 10 - - 29.3 1012.5 0.0
13/03:30pm SE 8 13 - - - - 10 - - 29.1 1012.4 0.0
13/03:00pm SE 9 14 - - - - 10 - - 29.1 1012.5 0.0
13/02:30pm SE 9 13 - - - - 10 - - 29.1 1012.7 0.0
13/02:00pm SE 8 11 - - - - 10 - - 29.5 1012.8 0.0
13/01:30pm SSE 8 11 - - - - 10 - - 29.2 1013.0 0.0
13/01:00pm SE 8 11 - - - - 10 - - 29.2 1013.2 0.0
13/12:30pm SSE 8 13 - - - - 10 - - 29.4 1013.7 0.0
13/12:00pm SSE 10 14 - - - - 10 - - 28.7 1014.1 0.0
13/11:30am SSE 9 15 - - - - 10 - - 29.3 1014.4 0.0
13/11:00am SE 9 12 - - - - 10 - - 28.1 1014.9 0.0
13/10:30am SE 9 13 - - - - 10 - - 27.1 1014.9 0.0
13/10:00am SE 9 13 - - - - 10 - - 27.3 1014.6 0.0
13/09:30am SSE 8 14 - - - - 10 - - 27.2 1014.3 0.0
13/09:00am SE 7 10 - - - - 10 - - 27.6 1014.0 0.0
13/08:30am SE 7 9 - - - - 10 - - 26.2 1013.6 0.0
13/08:00am SE 6 8 - - - - 10 - - 25.8 1013.4 0.0
13/07:30am SSE 6 8 - - - - 10 - - 24.5 1013.1 0.0
13/07:00am SSE 5 7 - - - - 10 - - 22.8 1012.9 0.0
13/06:30am SE 5 7 - - - - 10 - - 23.1 1012.5 0.0
13/06:00am SSE 5 6 - - - - 10 - - 22.6 1012.4 0.0
13/05:30am SSE 5 6 - - - - 10 - - 22.8 1012.3 0.0
13/05:00am SSE 5 7 - - - - 10 - - 21.7 1012.3 0.0
13/04:30am SSE 4 6 - - - - 10 - - 22.1 1012.3 0.0
13/04:00am CALM 0 0 - - - - 10 - - 21.3 1012.3 0.0
13/03:30am CALM 0 0 - - - - 10 - - 21.1 1012.4 0.0
13/03:00am S 1 4 - - - - 10 - - 21.8 1012.6 0.0
13/02:30am S 4 6 - - - - 10 - - 22.6 1012.8 0.0
13/02:00am SSE 5 7 - - - - 10 - - 22.8 1013.0 0.0
13/01:30am SSE 5 7 - - - - 10 - - 22.7 1013.3 0.0
13/01:00am SSE 4 6 - - - - 10 - - 22.1 1013.6 0.0
13/12:30am S 4 5 - - - - 10 - - 22.5 1013.9 0.0
13/12:00am S 2 4 - - - - 10 - - 22.8 1014.0 0.0
 
Date/Time
EST
Wind Sea
Height
m
Swell Vis
km
Cloud Weather Temp
°C
Press
MSL
hPa
Rain since
9am
mm
Dir  Spd
kts
Gust
kts
Height
m
Period
s
Dir
12/11:30pm S 4 5 - - - - 10 - - 22.9 1014.0 0.0
12/11:00pm SE 4 5 - - - - 10 - - 22.7 1013.8 0.0
12/10:30pm ESE 3 4 - - - - 10 - - 22.2 1013.6 0.0
12/10:00pm ESE 4 5 - - - - 10 - - 22.7 1013.7 0.0
12/09:30pm ESE 4 5 - - - - 10 - - 23.2 1013.9 0.0
12/09:00pm SE 5 5 - - - - 10 - - 23.6 1013.7 0.0
12/08:30pm SE 3 4 - - - - 10 - - 23.7 1013.6 0.0
12/08:00pm SE 4 5 - - - - 10 - - 24.7 1013.4 0.0
12/07:30pm SE 6 9 - - - - 10 - - 25.4 1013.2 0.0
12/07:00pm SE 6 10 - - - - 10 - - 25.7 1012.8 0.0
12/06:30pm SE 8 11 - - - - 10 - - 26.2 1012.3 0.0
12/06:00pm SE 8 13 - - - - 10 - - 27.0 1012.0 0.0
12/05:30pm SE 8 13 - - - - 10 - - 27.8 1011.8 0.0
12/05:00pm SE 9 14 - - - - 10 - - 28.0 1011.5 0.0
12/04:30pm SE 9 13 - - - - 10 - - 28.2 1011.3 0.0
12/04:00pm SSE 8 13 - - - - 10 - - 28.6 1011.2 0.0
12/03:30pm SSE 9 16 - - - - 10 - - 28.3 1011.3 0.0
12/03:00pm SSE 11 17 - - - - 10 - - 28.6 1011.4 0.0
12/02:30pm SE 10 14 - - - - 10 - - 28.4 1011.7 0.0
12/02:00pm SE 11 17 - - - - 10 - - 28.2 1011.8 0.0
12/01:30pm SE 11 18 - - - - 10 - - 27.8 1012.1 0.0
12/01:00pm SSE 10 17 - - - - 10 - - 28.2 1012.4 0.0
12/12:30pm SSE 10 16 - - - - 10 - - 27.9 1012.8 0.0
12/12:00pm SSE 11 15 - - - - 10 - - 27.6 1013.3 0.0
12/11:30am SE 11 16 - - - - 10 - - 27.5 1013.6 0.0
12/11:00am SSE 11 17 - - - - 10 - - 26.8 1014.0 0.0
12/10:30am SE 11 16 - - - - 10 - - 27.1 1014.2 0.0
12/10:00am SSE 10 17 - - - - 10 - - 26.3 1014.0 0.0
12/09:30am SSE 11 15 - - - - 10 - - 25.9 1013.7 0.0
12/09:00am SSE 9 15 - - - - 10 - - 25.9 1013.6 0.0
12/08:30am SSE 11 16 - - - - 10 - - 25.8 1013.3 0.0
12/08:00am SSE 9 16 - - - - 10 - - 25.3 1013.0 0.0
12/07:30am SE 11 18 - - - - 10 - - 25.3 1012.7 0.0
12/07:00am SE 10 18 - - - - 10 - - 25.0 1012.2 0.0
12/06:30am SE 11 16 - - - - 10 - - 25.1 1012.0 0.0
12/06:00am SE 11 17 - - - - 10 - - 25.2 1011.8 0.0
12/05:30am SE 10 17 - - - - 10 - - 25.4 1011.5 0.0
12/05:00am SE 11 16 - - - - 10 - - 25.5 1011.4 0.0
12/04:30am SE 11 19 - - - - 10 - - 25.7 1011.3 0.0
12/04:00am SSE 12 19 - - - - 10 - - 25.9 1011.3 0.0
12/03:30am SE 11 18 - - - - 10 - - 25.8 1011.4 0.0
12/03:00am SSE 11 17 - - - - 10 - - 26.2 1011.5 0.0
12/02:30am SE 10 16 - - - - 10 - - 25.9 1011.6 0.0
12/02:00am SE 10 16 - - - - 10 - - 25.9 1012.0 0.0
12/01:30am SE 11 16 - - - - 10 - - 26.1 1012.2 0.0
12/01:00am SE 9 19 - - - - 10 - - 26.2 1012.5 0.0
12/12:30am SE 8 14 - - - - 10 - - 26.4 1012.7 0.0
12/12:00am SE 9 13 - - - - 10 - - 26.5 1012.9 0.0
 
Date/Time
EST
Wind Sea
Height
m
Swell Vis
km
Cloud Weather Temp
°C
Press
MSL
hPa
Rain since
9am
mm
Dir  Spd
kts
Gust
kts
Height
m
Period
s
Dir
11/11:30pm SE 11 16 - - - - 10 - - 26.7 1012.9 0.0
11/11:00pm SSE 10 15 - - - - 10 - - 27.0 1013.0 0.0
11/10:30pm SSE 9 15 - - - - 10 - - 26.9 1013.1 0.0
11/10:00pm SE 8 13 - - - - 10 - - 26.8 1013.1 0.0
11/09:30pm SE 5 7 - - - - 10 - - 25.6 1013.2 0.0
11/09:00pm ESE 5 6 - - - - 10 - - 26.0 1013.1 0.0
11/08:30pm ESE 6 9 - - - - 10 - - 26.4 1012.9 0.0
11/08:00pm ESE 5 7 - - - - 10 - - 26.0 1012.8 0.0
11/07:30pm ESE 7 11 - - - - 10 - - 26.4 1012.6 0.0
11/07:00pm ESE 8 11 - - - - 10 Cloudy - 26.6 1012.3 0.0
11/06:30pm ESE 8 10 - - - - 10 Cloudy - 26.9 1012.2 0.0
11/06:00pm SE 8 11 - - - - 10 Mostly cloudy - 27.2 1012.3 0.0
11/05:30pm SE 7 10 - - - - 10 Cloudy - 27.4 1012.1 0.0
11/05:00pm SE 7 10 - - - - 10 Cloudy - 27.9 1012.0 0.0
11/04:30pm SE 8 13 - - - - 10 Cloudy - 28.5 1011.8 0.0
11/04:00pm SSE 8 12 - - - - 10 Cloudy - 27.9 1011.7 0.0
11/03:30pm SE 9 15 - - - - 10 Cloudy - 28.3 1011.5 0.0
11/03:00pm SSE 10 15 - - - - 10 Cloudy - 27.9 1011.4 0.0
11/02:30pm SSE 11 18 - - - - 10 Partly cloudy - 27.2 1011.2 0.0
11/02:00pm SSE 11 16 - - - - 10 - - 27.7 1011.2 0.0
11/01:30pm SSE 12 18 - - - - 10 - - 27.5 1011.5 0.0
11/01:00pm SSE 12 19 - - - - 10 - - 27.9 1011.6 0.0
11/12:30pm SE 11 16 - - - - 10 - - 28.3 1012.1 0.0
11/12:00pm SE 12 17 - - - - 10 - - 28.0 1012.6 0.0
11/11:30am ESE 13 18 - - - - 10 - - 27.9 1012.8 0.0

Other formats

Comma delimited format used in spreadsheet applications
http://www.bom.gov.au/fwo/IDQ60701/IDQ60701.94254.axf

JavaScript Object Notation format (JSON) in row-major order
http://www.bom.gov.au/fwo/IDQ60701/IDQ60701.94254.json

Data quality

Most of these data are generated automatically and are frequently updated. Quality checks on data are not normally performed. It is possible for incorrect values to appear. Refer to information at About Latest Weather Observations and please check the disclaimer before using these data.